sensor_id;sensor_type;location;lat;lon;timestamp;temperature;humidity
70851;DHT22;58475;49.662;9.636;2023-08-20T00:01:22;21.57;92.86
70851;DHT22;58475;49.662;9.636;2023-08-20T00:03:50;21.66;92.45
70851;DHT22;58475;49.662;9.636;2023-08-20T00:06:15;21.54;92.68
70851;DHT22;58475;49.662;9.636;2023-08-20T00:08:41;21.59;92.82
70851;DHT22;58475;49.662;9.636;2023-08-20T00:11:06;21.62;92.75
70851;DHT22;58475;49.662;9.636;2023-08-20T00:13:32;21.65;92.64
70851;DHT22;58475;49.662;9.636;2023-08-20T00:15:57;21.58;92.89
70851;DHT22;58475;49.662;9.636;2023-08-20T00:18:23;21.48;93.20
70851;DHT22;58475;49.662;9.636;2023-08-20T00:20:49;21.30;93.75
70851;DHT22;58475;49.662;9.636;2023-08-20T00:23:14;21.47;92.93
70851;DHT22;58475;49.662;9.636;2023-08-20T00:25:40;21.52;92.81
70851;DHT22;58475;49.662;9.636;2023-08-20T00:28:05;21.54;92.89
70851;DHT22;58475;49.662;9.636;2023-08-20T00:30:31;21.42;93.30
70851;DHT22;58475;49.662;9.636;2023-08-20T00:32:56;21.42;93.19
70851;DHT22;58475;49.662;9.636;2023-08-20T00:35:21;21.38;93.42
70851;DHT22;58475;49.662;9.636;2023-08-20T00:37:48;21.35;93.44
70851;DHT22;58475;49.662;9.636;2023-08-20T00:40:13;21.45;92.98
70851;DHT22;58475;49.662;9.636;2023-08-20T00:42:39;21.35;93.45
70851;DHT22;58475;49.662;9.636;2023-08-20T00:45:07;21.40;93.05
70851;DHT22;58475;49.662;9.636;2023-08-20T00:47:34;21.33;93.02
70851;DHT22;58475;49.662;9.636;2023-08-20T00:49:59;21.51;92.65
70851;DHT22;58475;49.662;9.636;2023-08-20T00:52:25;21.35;93.22
70851;DHT22;58475;49.662;9.636;2023-08-20T00:54:51;21.37;93.05
70851;DHT22;58475;49.662;9.636;2023-08-20T00:57:19;21.27;93.73
70851;DHT22;58475;49.662;9.636;2023-08-20T00:59:47;21.38;93.51
70851;DHT22;58475;49.662;9.636;2023-08-20T01:02:13;21.48;93.14
70851;DHT22;58475;49.662;9.636;2023-08-20T01:04:39;21.31;93.63
70851;DHT22;58475;49.662;9.636;2023-08-20T01:09:54;21.23;93.32
70851;DHT22;58475;49.662;9.636;2023-08-20T01:12:22;21.33;93.29
70851;DHT22;58475;49.662;9.636;2023-08-20T01:14:48;21.20;93.67
70851;DHT22;58475;49.662;9.636;2023-08-20T01:17:13;20.93;94.41
70851;DHT22;58475;49.662;9.636;2023-08-20T01:19:40;21.02;94.26
70851;DHT22;58475;49.662;9.636;2023-08-20T01:25:30;20.92;94.12
70851;DHT22;58475;49.662;9.636;2023-08-20T01:30:48;21.03;93.47
70851;DHT22;58475;49.662;9.636;2023-08-20T01:33:14;20.80;94.31
70851;DHT22;58475;49.662;9.636;2023-08-20T01:35:40;20.92;94.02
70851;DHT22;58475;49.662;9.636;2023-08-20T01:38:13;20.90;94.00
70851;DHT22;58475;49.662;9.636;2023-08-20T01:40:39;20.89;94.15
70851;DHT22;58475;49.662;9.636;2023-08-20T01:43:04;20.97;93.91
70851;DHT22;58475;49.662;9.636;2023-08-20T01:45:29;20.97;94.14
70851;DHT22;58475;49.662;9.636;2023-08-20T01:47:55;20.87;94.23
70851;DHT22;58475;49.662;9.636;2023-08-20T01:50:20;20.79;94.37
70851;DHT22;58475;49.662;9.636;2023-08-20T01:52:46;20.72;94.61
70851;DHT22;58475;49.662;9.636;2023-08-20T01:55:11;20.71;94.62
70851;DHT22;58475;49.662;9.636;2023-08-20T01:57:37;20.83;94.11
70851;DHT22;58475;49.662;9.636;2023-08-20T02:00:03;20.93;93.56
70851;DHT22;58475;49.662;9.636;2023-08-20T02:02:39;20.93;93.48
70851;DHT22;58475;49.662;9.636;2023-08-20T02:05:04;20.86;93.76
70851;DHT22;58475;49.662;9.636;2023-08-20T02:07:30;20.72;94.47
70851;DHT22;58475;49.662;9.636;2023-08-20T02:09:55;20.68;94.65
70851;DHT22;58475;49.662;9.636;2023-08-20T02:12:20;20.61;94.73
70851;DHT22;58475;49.662;9.636;2023-08-20T02:14:46;20.51;94.60
70851;DHT22;58475;49.662;9.636;2023-08-20T02:17:12;20.59;94.13
70851;DHT22;58475;49.662;9.636;2023-08-20T02:19:38;20.61;93.96
70851;DHT22;58475;49.662;9.636;2023-08-20T02:22:04;20.53;94.30
70851;DHT22;58475;49.662;9.636;2023-08-20T02:24:29;20.51;94.48
70851;DHT22;58475;49.662;9.636;2023-08-20T02:26:55;20.45;94.61
70851;DHT22;58475;49.662;9.636;2023-08-20T02:29:20;20.41;95.24
70851;DHT22;58475;49.662;9.636;2023-08-20T02:31:45;20.53;94.69
70851;DHT22;58475;49.662;9.636;2023-08-20T02:34:11;20.46;94.58
70851;DHT22;58475;49.662;9.636;2023-08-20T02:36:36;20.42;94.54
70851;DHT22;58475;49.662;9.636;2023-08-20T02:39:02;20.42;94.60
70851;DHT22;58475;49.662;9.636;2023-08-20T02:41:29;20.28;94.46
70851;DHT22;58475;49.662;9.636;2023-08-20T02:43:54;20.04;95.07
70851;DHT22;58475;49.662;9.636;2023-08-20T02:46:20;20.14;95.10
70851;DHT22;58475;49.662;9.636;2023-08-20T02:48:45;20.18;94.83
70851;DHT22;58475;49.662;9.636;2023-08-20T02:51:10;20.15;94.09
70851;DHT22;58475;49.662;9.636;2023-08-20T02:53:36;20.20;94.25
70851;DHT22;58475;49.662;9.636;2023-08-20T02:56:01;19.83;95.23
70851;DHT22;58475;49.662;9.636;2023-08-20T02:58:28;19.87;95.27
70851;DHT22;58475;49.662;9.636;2023-08-20T03:00:54;19.93;95.12
70851;DHT22;58475;49.662;9.636;2023-08-20T03:03:19;19.98;94.88
70851;DHT22;58475;49.662;9.636;2023-08-20T03:05:44;19.98;95.27
70851;DHT22;58475;49.662;9.636;2023-08-20T03:08:10;20.03;94.67
70851;DHT22;58475;49.662;9.636;2023-08-20T03:10:35;19.93;95.41
70851;DHT22;58475;49.662;9.636;2023-08-20T03:13:01;19.98;95.24
70851;DHT22;58475;49.662;9.636;2023-08-20T03:15:28;20.03;95.14
70851;DHT22;58475;49.662;9.636;2023-08-20T03:17:53;20.24;94.15
70851;DHT22;58475;49.662;9.636;2023-08-20T03:20:19;20.07;94.47
70851;DHT22;58475;49.662;9.636;2023-08-20T03:22:44;19.91;95.01
70851;DHT22;58475;49.662;9.636;2023-08-20T03:25:10;19.81;94.59
70851;DHT22;58475;49.662;9.636;2023-08-20T03:27:35;19.85;94.79
70851;DHT22;58475;49.662;9.636;2023-08-20T03:30:02;19.88;94.89
70851;DHT22;58475;49.662;9.636;2023-08-20T03:32:29;19.90;94.83
70851;DHT22;58475;49.662;9.636;2023-08-20T03:34:54;20.00;94.15
70851;DHT22;58475;49.662;9.636;2023-08-20T03:37:21;19.85;94.52
70851;DHT22;58475;49.662;9.636;2023-08-20T03:39:47;19.83;94.50
70851;DHT22;58475;49.662;9.636;2023-08-20T03:42:12;19.69;94.71
70851;DHT22;58475;49.662;9.636;2023-08-20T03:44:37;19.64;94.54
70851;DHT22;58475;49.662;9.636;2023-08-20T03:47:03;19.53;95.13
70851;DHT22;58475;49.662;9.636;2023-08-20T03:49:28;19.67;94.57
70851;DHT22;58475;49.662;9.636;2023-08-20T03:51:54;19.66;94.59
70851;DHT22;58475;49.662;9.636;2023-08-20T03:54:19;19.77;94.47
70851;DHT22;58475;49.662;9.636;2023-08-20T03:56:46;19.71;94.48
70851;DHT22;58475;49.662;9.636;2023-08-20T03:59:11;19.78;94.61
70851;DHT22;58475;49.662;9.636;2023-08-20T04:01:37;19.84;94.38
70851;DHT22;58475;49.662;9.636;2023-08-20T04:04:05;19.66;94.90
70851;DHT22;58475;49.662;9.636;2023-08-20T04:06:31;19.50;94.85
70851;DHT22;58475;49.662;9.636;2023-08-20T04:08:56;19.57;94.49
70851;DHT22;58475;49.662;9.636;2023-08-20T04:11:22;19.71;94.02
70851;DHT22;58475;49.662;9.636;2023-08-20T04:13:47;19.42;94.63
70851;DHT22;58475;49.662;9.636;2023-08-20T04:16:13;19.30;94.71
70851;DHT22;58475;49.662;9.636;2023-08-20T04:18:39;19.40;94.32
70851;DHT22;58475;49.662;9.636;2023-08-20T04:21:05;19.37;94.53
70851;DHT22;58475;49.662;9.636;2023-08-20T04:23:31;19.33;94.66
70851;DHT22;58475;49.662;9.636;2023-08-20T04:25:56;19.29;94.48
70851;DHT22;58475;49.662;9.636;2023-08-20T04:28:21;19.05;94.76
70851;DHT22;58475;49.662;9.636;2023-08-20T04:30:47;19.02;95.01
70851;DHT22;58475;49.662;9.636;2023-08-20T04:33:13;19.12;94.52
70851;DHT22;58475;49.662;9.636;2023-08-20T04:35:42;18.92;95.22
70851;DHT22;58475;49.662;9.636;2023-08-20T04:38:08;18.98;94.92
70851;DHT22;58475;49.662;9.636;2023-08-20T04:40:34;18.94;95.42
70851;DHT22;58475;49.662;9.636;2023-08-20T04:42:59;18.95;95.46
70851;DHT22;58475;49.662;9.636;2023-08-20T04:45:24;18.99;95.35
70851;DHT22;58475;49.662;9.636;2023-08-20T04:47:50;18.89;96.05
70851;DHT22;58475;49.662;9.636;2023-08-20T04:50:15;19.18;95.60
70851;DHT22;58475;49.662;9.636;2023-08-20T04:52:41;19.25;95.73
70851;DHT22;58475;49.662;9.636;2023-08-20T04:55:07;19.36;95.83
70851;DHT22;58475;49.662;9.636;2023-08-20T04:57:33;19.50;95.50
70851;DHT22;58475;49.662;9.636;2023-08-20T05:00:01;19.69;95.18
70851;DHT22;58475;49.662;9.636;2023-08-20T05:02:49;19.84;95.19
70851;DHT22;58475;49.662;9.636;2023-08-20T05:05:17;19.81;95.37
70851;DHT22;58475;49.662;9.636;2023-08-20T05:07:43;19.84;95.54
70851;DHT22;58475;49.662;9.636;2023-08-20T05:10:09;19.97;94.94
70851;DHT22;58475;49.662;9.636;2023-08-20T05:12:35;20.07;94.70
70851;DHT22;58475;49.662;9.636;2023-08-20T05:15:01;20.05;95.08
70851;DHT22;58475;49.662;9.636;2023-08-20T05:17:26;20.24;94.58
70851;DHT22;58475;49.662;9.636;2023-08-20T05:19:51;20.25;94.07
70851;DHT22;58475;49.662;9.636;2023-08-20T05:22:17;20.42;93.65
70851;DHT22;58475;49.662;9.636;2023-08-20T05:24:42;20.36;93.92
70851;DHT22;58475;49.662;9.636;2023-08-20T05:27:10;20.80;92.89
70851;DHT22;58475;49.662;9.636;2023-08-20T05:29:37;20.96;91.91
70851;DHT22;58475;49.662;9.636;2023-08-20T05:32:03;20.71;93.01
70851;DHT22;58475;49.662;9.636;2023-08-20T05:34:28;20.79;92.78
70851;DHT22;58475;49.662;9.636;2023-08-20T05:36:54;20.82;92.43
70851;DHT22;58475;49.662;9.636;2023-08-20T05:39:19;20.72;92.63
70851;DHT22;58475;49.662;9.636;2023-08-20T05:41:44;21.07;92.04
70851;DHT22;58475;49.662;9.636;2023-08-20T05:44:10;21.40;91.30
70851;DHT22;58475;49.662;9.636;2023-08-20T05:46:36;21.71;90.43
70851;DHT22;58475;49.662;9.636;2023-08-20T05:49:01;21.69;89.69
70851;DHT22;58475;49.662;9.636;2023-08-20T05:51:31;21.83;89.34
70851;DHT22;58475;49.662;9.636;2023-08-20T05:53:56;21.62;90.06
70851;DHT22;58475;49.662;9.636;2023-08-20T05:56:22;21.98;89.85
70851;DHT22;58475;49.662;9.636;2023-08-20T05:58:47;22.33;89.06
70851;DHT22;58475;49.662;9.636;2023-08-20T06:01:13;22.75;87.84
70851;DHT22;58475;49.662;9.636;2023-08-20T06:03:39;22.59;88.60
70851;DHT22;58475;49.662;9.636;2023-08-20T06:06:04;22.68;88.64
70851;DHT22;58475;49.662;9.636;2023-08-20T06:08:29;22.92;87.34
70851;DHT22;58475;49.662;9.636;2023-08-20T06:10:55;22.80;88.60
70851;DHT22;58475;49.662;9.636;2023-08-20T06:13:20;23.18;87.24
70851;DHT22;58475;49.662;9.636;2023-08-20T06:15:45;22.84;87.49
70851;DHT22;58475;49.662;9.636;2023-08-20T06:18:11;22.78;87.90
70851;DHT22;58475;49.662;9.636;2023-08-20T06:20:36;22.91;87.91
70851;DHT22;58475;49.662;9.636;2023-08-20T06:23:02;23.50;86.28
70851;DHT22;58475;49.662;9.636;2023-08-20T06:25:27;23.99;85.71
70851;DHT22;58475;49.662;9.636;2023-08-20T06:27:53;24.41;84.97
70851;DHT22;58475;49.662;9.636;2023-08-20T06:30:19;24.62;83.74
70851;DHT22;58475;49.662;9.636;2023-08-20T06:32:44;24.57;84.38
70851;DHT22;58475;49.662;9.636;2023-08-20T06:35:10;24.21;85.30
70851;DHT22;58475;49.662;9.636;2023-08-20T06:37:38;24.22;85.59
70851;DHT22;58475;49.662;9.636;2023-08-20T06:40:04;23.56;87.59
70851;DHT22;58475;49.662;9.636;2023-08-20T06:42:29;24.37;86.58
70851;DHT22;58475;49.662;9.636;2023-08-20T06:44:54;24.64;84.85
70851;DHT22;58475;49.662;9.636;2023-08-20T06:47:20;24.58;85.29
70851;DHT22;58475;49.662;9.636;2023-08-20T06:49:45;24.16;85.24
70851;DHT22;58475;49.662;9.636;2023-08-20T06:52:10;24.72;84.66
70851;DHT22;58475;49.662;9.636;2023-08-20T06:54:36;24.24;86.02
70851;DHT22;58475;49.662;9.636;2023-08-20T06:57:04;24.37;85.84
70851;DHT22;58475;49.662;9.636;2023-08-20T06:59:30;24.42;85.25
70851;DHT22;58475;49.662;9.636;2023-08-20T07:01:55;24.39;86.65
70851;DHT22;58475;49.662;9.636;2023-08-20T07:04:21;24.28;86.78
70851;DHT22;58475;49.662;9.636;2023-08-20T07:06:46;24.37;86.02
70851;DHT22;58475;49.662;9.636;2023-08-20T07:09:11;25.10;85.10
70851;DHT22;58475;49.662;9.636;2023-08-20T07:11:36;25.31;84.19
70851;DHT22;58475;49.662;9.636;2023-08-20T07:14:02;25.16;84.42
70851;DHT22;58475;49.662;9.636;2023-08-20T07:16:28;25.02;84.56
70851;DHT22;58475;49.662;9.636;2023-08-20T07:18:53;25.51;83.29
70851;DHT22;58475;49.662;9.636;2023-08-20T07:21:18;25.61;83.28
70851;DHT22;58475;49.662;9.636;2023-08-20T07:23:44;25.77;82.60
70851;DHT22;58475;49.662;9.636;2023-08-20T07:26:11;25.74;83.03
70851;DHT22;58475;49.662;9.636;2023-08-20T07:28:40;25.56;83.43
70851;DHT22;58475;49.662;9.636;2023-08-20T07:31:30;25.89;81.84
70851;DHT22;58475;49.662;9.636;2023-08-20T07:33:57;27.21;79.23
70851;DHT22;58475;49.662;9.636;2023-08-20T07:36:23;27.97;77.88
70851;DHT22;58475;49.662;9.636;2023-08-20T07:38:50;27.12;77.58
70851;DHT22;58475;49.662;9.636;2023-08-20T07:41:16;27.14;77.84
70851;DHT22;58475;49.662;9.636;2023-08-20T07:43:41;26.97;77.66
70851;DHT22;58475;49.662;9.636;2023-08-20T07:46:08;26.74;78.08
70851;DHT22;58475;49.662;9.636;2023-08-20T07:48:34;26.60;78.78
70851;DHT22;58475;49.662;9.636;2023-08-20T07:51:01;26.69;79.80
70851;DHT22;58475;49.662;9.636;2023-08-20T07:53:27;27.04;77.31
70851;DHT22;58475;49.662;9.636;2023-08-20T07:55:52;27.00;77.02
70851;DHT22;58475;49.662;9.636;2023-08-20T07:58:17;27.72;76.45
70851;DHT22;58475;49.662;9.636;2023-08-20T08:00:43;27.75;75.12
70851;DHT22;58475;49.662;9.636;2023-08-20T08:03:08;27.34;76.67
70851;DHT22;58475;49.662;9.636;2023-08-20T08:05:35;27.35;77.36
70851;DHT22;58475;49.662;9.636;2023-08-20T08:08:00;27.34;76.70
70851;DHT22;58475;49.662;9.636;2023-08-20T08:10:26;27.34;77.11
70851;DHT22;58475;49.662;9.636;2023-08-20T08:12:51;26.98;77.92
70851;DHT22;58475;49.662;9.636;2023-08-20T08:15:17;26.80;78.71
70851;DHT22;58475;49.662;9.636;2023-08-20T08:17:42;27.31;76.83
70851;DHT22;58475;49.662;9.636;2023-08-20T08:20:08;28.67;74.98
70851;DHT22;58475;49.662;9.636;2023-08-20T08:22:33;28.71;72.92
70851;DHT22;58475;49.662;9.636;2023-08-20T08:24:58;28.06;74.79
70851;DHT22;58475;49.662;9.636;2023-08-20T08:27:24;28.12;74.13
70851;DHT22;58475;49.662;9.636;2023-08-20T08:29:50;28.37;73.15
70851;DHT22;58475;49.662;9.636;2023-08-20T08:32:16;27.93;73.30
70851;DHT22;58475;49.662;9.636;2023-08-20T08:34:41;28.18;74.72
70851;DHT22;58475;49.662;9.636;2023-08-20T08:37:06;28.12;74.25
70851;DHT22;58475;49.662;9.636;2023-08-20T08:39:32;28.25;73.46
70851;DHT22;58475;49.662;9.636;2023-08-20T08:42:02;28.02;74.57
70851;DHT22;58475;49.662;9.636;2023-08-20T08:44:31;27.76;74.15
70851;DHT22;58475;49.662;9.636;2023-08-20T08:47:01;28.36;73.47
70851;DHT22;58475;49.662;9.636;2023-08-20T08:49:27;29.13;73.57
70851;DHT22;58475;49.662;9.636;2023-08-20T08:51:56;28.83;72.58
70851;DHT22;58475;49.662;9.636;2023-08-20T08:54:22;28.68;73.14
70851;DHT22;58475;49.662;9.636;2023-08-20T08:56:48;28.58;72.90
70851;DHT22;58475;49.662;9.636;2023-08-20T08:59:14;29.01;72.32
70851;DHT22;58475;49.662;9.636;2023-08-20T09:01:40;29.77;71.66
70851;DHT22;58475;49.662;9.636;2023-08-20T09:04:06;30.25;69.42
70851;DHT22;58475;49.662;9.636;2023-08-20T09:06:52;29.98;68.13
70851;DHT22;58475;49.662;9.636;2023-08-20T09:09:19;29.56;68.08
70851;DHT22;58475;49.662;9.636;2023-08-20T09:11:48;29.47;69.89
70851;DHT22;58475;49.662;9.636;2023-08-20T09:14:29;30.17;68.84
70851;DHT22;58475;49.662;9.636;2023-08-20T09:17:04;30.93;69.10
70851;DHT22;58475;49.662;9.636;2023-08-20T09:19:35;31.68;65.83
70851;DHT22;58475;49.662;9.636;2023-08-20T09:22:04;30.83;66.14
70851;DHT22;58475;49.662;9.636;2023-08-20T09:24:38;30.62;66.35
70851;DHT22;58475;49.662;9.636;2023-08-20T09:27:04;31.68;66.09
70851;DHT22;58475;49.662;9.636;2023-08-20T09:29:43;31.40;64.38
70851;DHT22;58475;49.662;9.636;2023-08-20T09:32:13;30.93;65.87
70851;DHT22;58475;49.662;9.636;2023-08-20T09:34:39;30.99;66.34
70851;DHT22;58475;49.662;9.636;2023-08-20T09:37:08;30.39;66.09
70851;DHT22;58475;49.662;9.636;2023-08-20T09:39:34;30.56;66.37
70851;DHT22;58475;49.662;9.636;2023-08-20T09:41:59;30.78;66.52
70851;DHT22;58475;49.662;9.636;2023-08-20T09:44:28;30.76;66.40
70851;DHT22;58475;49.662;9.636;2023-08-20T09:46:57;31.00;66.61
70851;DHT22;58475;49.662;9.636;2023-08-20T09:49:24;31.82;63.68
70851;DHT22;58475;49.662;9.636;2023-08-20T09:51:52;32.77;63.04
70851;DHT22;58475;49.662;9.636;2023-08-20T09:54:27;32.46;62.31
70851;DHT22;58475;49.662;9.636;2023-08-20T09:56:55;31.89;63.52
70851;DHT22;58475;49.662;9.636;2023-08-20T09:59:24;31.86;63.11
70851;DHT22;58475;49.662;9.636;2023-08-20T10:01:50;31.18;64.11
70851;DHT22;58475;49.662;9.636;2023-08-20T10:04:17;30.73;65.15
70851;DHT22;58475;49.662;9.636;2023-08-20T10:06:43;31.62;65.82
70851;DHT22;58475;49.662;9.636;2023-08-20T10:09:09;32.41;62.98
70851;DHT22;58475;49.662;9.636;2023-08-20T10:11:37;32.80;64.57
70851;DHT22;58475;49.662;9.636;2023-08-20T10:14:03;32.88;61.11
70851;DHT22;58475;49.662;9.636;2023-08-20T10:16:28;33.01;60.48
70851;DHT22;58475;49.662;9.636;2023-08-20T10:18:54;32.47;60.31
70851;DHT22;58475;49.662;9.636;2023-08-20T10:21:24;32.52;62.54
70851;DHT22;58475;49.662;9.636;2023-08-20T10:23:50;33.04;61.04
70851;DHT22;58475;49.662;9.636;2023-08-20T10:26:16;33.62;60.21
70851;DHT22;58475;49.662;9.636;2023-08-20T10:28:42;33.51;61.35
70851;DHT22;58475;49.662;9.636;2023-08-20T10:31:09;32.88;60.20
70851;DHT22;58475;49.662;9.636;2023-08-20T10:33:58;33.90;59.24
70851;DHT22;58475;49.662;9.636;2023-08-20T10:36:23;33.73;60.55
70851;DHT22;58475;49.662;9.636;2023-08-20T10:38:55;33.29;59.36
70851;DHT22;58475;49.662;9.636;2023-08-20T10:41:25;33.11;58.57
70851;DHT22;58475;49.662;9.636;2023-08-20T10:43:50;33.51;59.02
70851;DHT22;58475;49.662;9.636;2023-08-20T10:46:18;33.58;58.77
70851;DHT22;58475;49.662;9.636;2023-08-20T10:48:52;33.52;60.59
70851;DHT22;58475;49.662;9.636;2023-08-20T10:51:18;34.04;59.14
70851;DHT22;58475;49.662;9.636;2023-08-20T10:59:26;33.49;58.73
70851;DHT22;58475;49.662;9.636;2023-08-20T11:01:53;33.49;58.84
70851;DHT22;58475;49.662;9.636;2023-08-20T11:04:22;33.75;58.74
70851;DHT22;58475;49.662;9.636;2023-08-20T11:06:57;34.33;58.01
70851;DHT22;58475;49.662;9.636;2023-08-20T11:09:27;33.34;58.16
70851;DHT22;58475;49.662;9.636;2023-08-20T11:11:53;34.40;58.13
70851;DHT22;58475;49.662;9.636;2023-08-20T11:14:19;34.61;56.51
70851;DHT22;58475;49.662;9.636;2023-08-20T11:16:45;34.25;57.29
70851;DHT22;58475;49.662;9.636;2023-08-20T11:19:12;34.07;56.64
70851;DHT22;58475;49.662;9.636;2023-08-20T11:21:39;33.55;55.56
70851;DHT22;58475;49.662;9.636;2023-08-20T11:24:05;33.90;57.18
70851;DHT22;58475;49.662;9.636;2023-08-20T11:26:35;34.09;58.95
70851;DHT22;58475;49.662;9.636;2023-08-20T11:29:11;33.89;57.55
70851;DHT22;58475;49.662;9.636;2023-08-20T11:31:38;33.73;58.76
70851;DHT22;58475;49.662;9.636;2023-08-20T11:34:04;33.61;57.22
70851;DHT22;58475;49.662;9.636;2023-08-20T11:36:30;34.43;58.38
70851;DHT22;58475;49.662;9.636;2023-08-20T11:38:55;34.47;56.55
70851;DHT22;58475;49.662;9.636;2023-08-20T11:41:22;34.48;57.15
70851;DHT22;58475;49.662;9.636;2023-08-20T11:43:48;34.41;55.18
70851;DHT22;58475;49.662;9.636;2023-08-20T11:46:14;34.64;54.69
70851;DHT22;58475;49.662;9.636;2023-08-20T11:49:02;34.75;55.13
70851;DHT22;58475;49.662;9.636;2023-08-20T11:51:28;34.24;55.52
70851;DHT22;58475;49.662;9.636;2023-08-20T11:53:55;34.87;52.09
70851;DHT22;58475;49.662;9.636;2023-08-20T11:56:21;34.87;54.50
70851;DHT22;58475;49.662;9.636;2023-08-20T11:58:50;34.80;53.11
70851;DHT22;58475;49.662;9.636;2023-08-20T12:01:18;34.71;53.43
70851;DHT22;58475;49.662;9.636;2023-08-20T12:03:43;34.75;52.25
70851;DHT22;58475;49.662;9.636;2023-08-20T12:06:19;34.81;54.61
70851;DHT22;58475;49.662;9.636;2023-08-20T12:08:45;35.19;53.18
70851;DHT22;58475;49.662;9.636;2023-08-20T12:11:11;35.30;52.98
70851;DHT22;58475;49.662;9.636;2023-08-20T12:13:36;35.20;52.63
70851;DHT22;58475;49.662;9.636;2023-08-20T12:16:02;34.95;52.98
70851;DHT22;58475;49.662;9.636;2023-08-20T12:18:27;34.67;53.34
70851;DHT22;58475;49.662;9.636;2023-08-20T12:20:52;34.91;53.92
70851;DHT22;58475;49.662;9.636;2023-08-20T12:23:18;34.44;51.31
70851;DHT22;58475;49.662;9.636;2023-08-20T12:25:50;34.45;51.57
70851;DHT22;58475;49.662;9.636;2023-08-20T12:28:15;34.78;53.60
70851;DHT22;58475;49.662;9.636;2023-08-20T12:30:41;35.09;53.10
70851;DHT22;58475;49.662;9.636;2023-08-20T12:33:07;34.54;52.74
70851;DHT22;58475;49.662;9.636;2023-08-20T12:35:32;34.43;50.23
70851;DHT22;58475;49.662;9.636;2023-08-20T12:37:58;34.84;50.71
70851;DHT22;58475;49.662;9.636;2023-08-20T12:40:26;34.99;52.31
70851;DHT22;58475;49.662;9.636;2023-08-20T12:42:51;35.30;51.53
70851;DHT22;58475;49.662;9.636;2023-08-20T12:45:17;35.03;50.80
70851;DHT22;58475;49.662;9.636;2023-08-20T12:47:42;34.98;51.95
70851;DHT22;58475;49.662;9.636;2023-08-20T12:50:08;34.61;51.33
70851;DHT22;58475;49.662;9.636;2023-08-20T12:52:34;34.62;52.30
70851;DHT22;58475;49.662;9.636;2023-08-20T12:54:59;34.44;52.00
70851;DHT22;58475;49.662;9.636;2023-08-20T12:57:24;35.23;53.36
70851;DHT22;58475;49.662;9.636;2023-08-20T12:59:50;35.36;51.67
70851;DHT22;58475;49.662;9.636;2023-08-20T13:02:15;35.20;50.63
70851;DHT22;58475;49.662;9.636;2023-08-20T13:04:41;35.72;53.05
70851;DHT22;58475;49.662;9.636;2023-08-20T13:07:07;35.51;54.92
70851;DHT22;58475;49.662;9.636;2023-08-20T13:09:33;35.90;52.68
70851;DHT22;58475;49.662;9.636;2023-08-20T13:12:00;35.57;51.69
70851;DHT22;58475;49.662;9.636;2023-08-20T13:14:29;35.09;51.80
70851;DHT22;58475;49.662;9.636;2023-08-20T13:16:54;34.91;51.43
70851;DHT22;58475;49.662;9.636;2023-08-20T13:19:21;35.67;52.87
70851;DHT22;58475;49.662;9.636;2023-08-20T13:21:46;35.79;53.46
70851;DHT22;58475;49.662;9.636;2023-08-20T13:24:11;35.66;52.96
70851;DHT22;58475;49.662;9.636;2023-08-20T13:26:37;35.84;51.96
70851;DHT22;58475;49.662;9.636;2023-08-20T13:29:03;35.57;49.15
70851;DHT22;58475;49.662;9.636;2023-08-20T13:31:28;35.94;49.25
70851;DHT22;58475;49.662;9.636;2023-08-20T13:33:54;35.80;49.69
70851;DHT22;58475;49.662;9.636;2023-08-20T13:36:19;36.07;49.27
70851;DHT22;58475;49.662;9.636;2023-08-20T13:38:44;35.61;50.70
70851;DHT22;58475;49.662;9.636;2023-08-20T13:41:11;36.35;49.68
70851;DHT22;58475;49.662;9.636;2023-08-20T13:43:36;35.86;49.61
70851;DHT22;58475;49.662;9.636;2023-08-20T13:46:02;35.20;51.23
70851;DHT22;58475;49.662;9.636;2023-08-20T13:48:27;35.25;49.30
70851;DHT22;58475;49.662;9.636;2023-08-20T13:50:52;35.67;48.50
70851;DHT22;58475;49.662;9.636;2023-08-20T13:53:18;36.07;50.32
70851;DHT22;58475;49.662;9.636;2023-08-20T13:55:43;36.01;49.01
70851;DHT22;58475;49.662;9.636;2023-08-20T13:58:08;35.43;49.44
70851;DHT22;58475;49.662;9.636;2023-08-20T14:00:34;35.63;47.06
70851;DHT22;58475;49.662;9.636;2023-08-20T14:02:59;36.16;48.20
70851;DHT22;58475;49.662;9.636;2023-08-20T14:05:25;35.54;50.63
70851;DHT22;58475;49.662;9.636;2023-08-20T14:07:50;36.04;47.26
70851;DHT22;58475;49.662;9.636;2023-08-20T14:10:16;36.48;49.91
70851;DHT22;58475;49.662;9.636;2023-08-20T14:12:41;36.49;48.67
70851;DHT22;58475;49.662;9.636;2023-08-20T14:15:07;35.20;48.29
70851;DHT22;58475;49.662;9.636;2023-08-20T14:17:33;35.67;47.91
70851;DHT22;58475;49.662;9.636;2023-08-20T14:19:58;36.32;47.36
70851;DHT22;58475;49.662;9.636;2023-08-20T14:22:24;36.24;49.72
70851;DHT22;58475;49.662;9.636;2023-08-20T14:24:49;36.17;50.04
70851;DHT22;58475;49.662;9.636;2023-08-20T14:27:14;36.02;47.97
70851;DHT22;58475;49.662;9.636;2023-08-20T14:29:41;35.50;50.66
70851;DHT22;58475;49.662;9.636;2023-08-20T14:32:06;35.28;50.59
70851;DHT22;58475;49.662;9.636;2023-08-20T14:34:32;34.98;51.95
70851;DHT22;58475;49.662;9.636;2023-08-20T14:36:57;35.13;51.38
70851;DHT22;58475;49.662;9.636;2023-08-20T14:39:22;34.85;50.46
70851;DHT22;58475;49.662;9.636;2023-08-20T14:41:48;35.49;49.13
70851;DHT22;58475;49.662;9.636;2023-08-20T14:44:14;35.33;49.61
70851;DHT22;58475;49.662;9.636;2023-08-20T14:46:39;34.70;50.09
70851;DHT22;58475;49.662;9.636;2023-08-20T14:49:05;35.23;54.31
70851;DHT22;58475;49.662;9.636;2023-08-20T14:51:30;35.43;50.87
70851;DHT22;58475;49.662;9.636;2023-08-20T14:53:55;35.64;51.13
70851;DHT22;58475;49.662;9.636;2023-08-20T14:56:21;35.97;51.57
70851;DHT22;58475;49.662;9.636;2023-08-20T14:58:46;36.21;49.34
70851;DHT22;58475;49.662;9.636;2023-08-20T15:01:11;36.02;50.71
70851;DHT22;58475;49.662;9.636;2023-08-20T15:03:38;35.72;51.87
70851;DHT22;58475;49.662;9.636;2023-08-20T15:06:04;36.01;50.71
70851;DHT22;58475;49.662;9.636;2023-08-20T15:08:29;35.74;51.21
70851;DHT22;58475;49.662;9.636;2023-08-20T15:10:59;34.98;51.72
70851;DHT22;58475;49.662;9.636;2023-08-20T15:13:28;35.67;51.93
70851;DHT22;58475;49.662;9.636;2023-08-20T15:15:54;35.25;52.18
70851;DHT22;58475;49.662;9.636;2023-08-20T15:18:20;35.56;52.04
70851;DHT22;58475;49.662;9.636;2023-08-20T15:20:53;34.81;52.51
70851;DHT22;58475;49.662;9.636;2023-08-20T15:23:18;35.03;52.13
70851;DHT22;58475;49.662;9.636;2023-08-20T15:25:46;34.16;54.69
70851;DHT22;58475;49.662;9.636;2023-08-20T15:28:12;34.21;53.96
70851;DHT22;58475;49.662;9.636;2023-08-20T15:30:37;34.00;55.21
70851;DHT22;58475;49.662;9.636;2023-08-20T15:33:03;34.28;54.30
70851;DHT22;58475;49.662;9.636;2023-08-20T15:35:28;34.43;55.37
70851;DHT22;58475;49.662;9.636;2023-08-20T15:37:54;34.80;54.66
70851;DHT22;58475;49.662;9.636;2023-08-20T15:40:19;34.65;53.44